sensor_id;sensor_type;location;lat;lon;timestamp;temperature;humidity
69054;DHT22;56125;52.242;4.756;2023-04-22T00:03:26;19.10;45.90
69054;DHT22;56125;52.242;4.756;2023-04-22T00:08:28;19.10;45.90
69054;DHT22;56125;52.242;4.756;2023-04-22T00:13:29;19.10;45.80
69054;DHT22;56125;52.242;4.756;2023-04-22T00:18:33;19.10;45.90
69054;DHT22;56125;52.242;4.756;2023-04-22T00:23:35;19.10;45.90
69054;DHT22;56125;52.242;4.756;2023-04-22T00:28:36;19.10;45.90
69054;DHT22;56125;52.242;4.756;2023-04-22T00:33:37;19.10;45.80
69054;DHT22;56125;52.242;4.756;2023-04-22T00:38:38;19.10;45.80
69054;DHT22;56125;52.242;4.756;2023-04-22T00:43:39;19.10;45.80
69054;DHT22;56125;52.242;4.756;2023-04-22T00:48:40;19.00;45.60
69054;DHT22;56125;52.242;4.756;2023-04-22T00:53:41;19.00;45.70
69054;DHT22;56125;52.242;4.756;2023-04-22T00:58:42;19.00;45.50
69054;DHT22;56125;52.242;4.756;2023-04-22T01:03:45;19.00;45.60
69054;DHT22;56125;52.242;4.756;2023-04-22T01:08:47;19.00;45.60
69054;DHT22;56125;52.242;4.756;2023-04-22T01:13:48;19.00;45.50
69054;DHT22;56125;52.242;4.756;2023-04-22T01:18:49;19.00;45.50
69054;DHT22;56125;52.242;4.756;2023-04-22T01:23:50;19.00;45.40
69054;DHT22;56125;52.242;4.756;2023-04-22T01:28:52;18.90;45.60
69054;DHT22;56125;52.242;4.756;2023-04-22T01:33:53;19.00;45.50
69054;DHT22;56125;52.242;4.756;2023-04-22T01:38:55;19.00;45.50
69054;DHT22;56125;52.242;4.756;2023-04-22T01:43:57;19.20;45.60
69054;DHT22;56125;52.242;4.756;2023-04-22T01:48:59;19.00;45.50
69054;DHT22;56125;52.242;4.756;2023-04-22T01:54:01;19.00;45.40
69054;DHT22;56125;52.242;4.756;2023-04-22T01:59:04;19.00;45.60
69054;DHT22;56125;52.242;4.756;2023-04-22T02:04:05;19.00;45.50
69054;DHT22;56125;52.242;4.756;2023-04-22T02:09:06;18.70;45.20
69054;DHT22;56125;52.242;4.756;2023-04-22T02:14:08;18.90;45.40
69054;DHT22;56125;52.242;4.756;2023-04-22T02:19:09;18.90;45.40
69054;DHT22;56125;52.242;4.756;2023-04-22T02:24:10;18.90;45.30
69054;DHT22;56125;52.242;4.756;2023-04-22T02:29:11;18.90;45.30
69054;DHT22;56125;52.242;4.756;2023-04-22T02:34:12;18.90;45.30
69054;DHT22;56125;52.242;4.756;2023-04-22T02:39:13;18.90;45.30
69054;DHT22;56125;52.242;4.756;2023-04-22T02:44:14;18.80;45.20
69054;DHT22;56125;52.242;4.756;2023-04-22T02:49:15;18.90;45.80
69054;DHT22;56125;52.242;4.756;2023-04-22T02:54:16;18.90;45.30
69054;DHT22;56125;52.242;4.756;2023-04-22T02:59:17;18.90;45.20
69054;DHT22;56125;52.242;4.756;2023-04-22T03:04:18;18.90;45.30
69054;DHT22;56125;52.242;4.756;2023-04-22T03:09:21;18.70;45.20
69054;DHT22;56125;52.242;4.756;2023-04-22T03:14:22;18.80;45.10
69054;DHT22;56125;52.242;4.756;2023-04-22T03:19:23;18.80;45.10
69054;DHT22;56125;52.242;4.756;2023-04-22T03:24:24;18.70;45.20
69054;DHT22;56125;52.242;4.756;2023-04-22T03:29:26;18.80;45.00
69054;DHT22;56125;52.242;4.756;2023-04-22T03:34:27;18.80;45.10
69054;DHT22;56125;52.242;4.756;2023-04-22T03:39:28;18.80;45.10
69054;DHT22;56125;52.242;4.756;2023-04-22T03:44:29;18.80;46.10
69054;DHT22;56125;52.242;4.756;2023-04-22T03:49:30;19.30;45.30
69054;DHT22;56125;52.242;4.756;2023-04-22T03:54:31;18.80;45.10
69054;DHT22;56125;52.242;4.756;2023-04-22T03:59:32;18.70;45.00
69054;DHT22;56125;52.242;4.756;2023-04-22T04:04:33;18.80;45.00
69054;DHT22;56125;52.242;4.756;2023-04-22T04:09:34;18.70;44.90
69054;DHT22;56125;52.242;4.756;2023-04-22T04:14:35;18.70;45.00
69054;DHT22;56125;52.242;4.756;2023-04-22T04:19:36;18.70;45.00
69054;DHT22;56125;52.242;4.756;2023-04-22T04:24:37;18.70;44.90
69054;DHT22;56125;52.242;4.756;2023-04-22T04:29:41;18.80;45.00
69054;DHT22;56125;52.242;4.756;2023-04-22T04:34:42;18.70;45.00
69054;DHT22;56125;52.242;4.756;2023-04-22T04:39:43;18.70;45.00
69054;DHT22;56125;52.242;4.756;2023-04-22T04:44:44;18.70;45.00
69054;DHT22;56125;52.242;4.756;2023-04-22T04:49:47;18.70;45.10
69054;DHT22;56125;52.242;4.756;2023-04-22T04:54:48;18.70;46.10
69054;DHT22;56125;52.242;4.756;2023-04-22T04:59:49;18.70;45.00
69054;DHT22;56125;52.242;4.756;2023-04-22T05:04:50;18.70;45.00
69054;DHT22;56125;52.242;4.756;2023-04-22T05:09:51;18.70;45.10
69054;DHT22;56125;52.242;4.756;2023-04-22T05:14:52;18.70;45.10
69054;DHT22;56125;52.242;4.756;2023-04-22T05:19:53;18.70;45.20
69054;DHT22;56125;52.242;4.756;2023-04-22T05:24:54;18.70;45.20
69054;DHT22;56125;52.242;4.756;2023-04-22T05:29:55;18.60;45.10
69054;DHT22;56125;52.242;4.756;2023-04-22T05:34:56;18.70;45.20
69054;DHT22;56125;52.242;4.756;2023-04-22T05:39:57;18.70;45.20
69054;DHT22;56125;52.242;4.756;2023-04-22T05:44:58;18.70;45.20
69054;DHT22;56125;52.242;4.756;2023-04-22T05:49:59;18.70;45.30
69054;DHT22;56125;52.242;4.756;2023-04-22T05:55:00;18.60;45.30
69054;DHT22;56125;52.242;4.756;2023-04-22T06:00:03;18.70;45.40
69054;DHT22;56125;52.242;4.756;2023-04-22T06:05:04;18.70;45.30
69054;DHT22;56125;52.242;4.756;2023-04-22T06:10:06;18.70;45.40
69054;DHT22;56125;52.242;4.756;2023-04-22T06:15:08;18.60;45.30
69054;DHT22;56125;52.242;4.756;2023-04-22T06:20:10;18.60;45.40
69054;DHT22;56125;52.242;4.756;2023-04-22T06:25:11;18.70;45.60
69054;DHT22;56125;52.242;4.756;2023-04-22T06:30:12;18.60;45.50
69054;DHT22;56125;52.242;4.756;2023-04-22T06:35:13;18.60;45.60
69054;DHT22;56125;52.242;4.756;2023-04-22T06:40:14;18.70;45.60
69054;DHT22;56125;52.242;4.756;2023-04-22T06:45:15;18.60;45.70
69054;DHT22;56125;52.242;4.756;2023-04-22T06:50:16;18.60;45.70
69054;DHT22;56125;52.242;4.756;2023-04-22T06:55:18;18.60;45.70
69054;DHT22;56125;52.242;4.756;2023-04-22T07:00:19;18.70;45.70
69054;DHT22;56125;52.242;4.756;2023-04-22T07:05:20;18.60;45.70
69054;DHT22;56125;52.242;4.756;2023-04-22T07:10:21;18.50;45.70
69054;DHT22;56125;52.242;4.756;2023-04-22T07:15:22;18.70;45.80
69054;DHT22;56125;52.242;4.756;2023-04-22T07:20:23;18.70;46.80
69054;DHT22;56125;52.242;4.756;2023-04-22T07:25:24;19.10;46.10
69054;DHT22;56125;52.242;4.756;2023-04-22T07:30:25;19.30;46.20
69054;DHT22;56125;52.242;4.756;2023-04-22T07:35:26;18.80;45.90
69054;DHT22;56125;52.242;4.756;2023-04-22T07:40:28;18.90;46.00
69054;DHT22;56125;52.242;4.756;2023-04-22T07:45:29;18.80;45.90
69054;DHT22;56125;52.242;4.756;2023-04-22T07:50:30;18.90;46.10
69054;DHT22;56125;52.242;4.756;2023-04-22T07:55:31;18.90;46.10
69054;DHT22;56125;52.242;4.756;2023-04-22T08:00:33;19.00;46.30
69054;DHT22;56125;52.242;4.756;2023-04-22T08:05:35;19.00;46.50
69054;DHT22;56125;52.242;4.756;2023-04-22T08:10:36;18.90;46.20
69054;DHT22;56125;52.242;4.756;2023-04-22T08:15:37;19.00;46.40
69054;DHT22;56125;52.242;4.756;2023-04-22T08:20:38;19.10;46.30
69054;DHT22;56125;52.242;4.756;2023-04-22T08:25:39;19.20;46.60
69054;DHT22;56125;52.242;4.756;2023-04-22T08:30:40;19.20;46.90
69054;DHT22;56125;52.242;4.756;2023-04-22T08:35:41;19.40;47.20
69054;DHT22;56125;52.242;4.756;2023-04-22T08:40:42;19.20;47.20
69054;DHT22;56125;52.242;4.756;2023-04-22T08:45:44;19.40;47.40
69054;DHT22;56125;52.242;4.756;2023-04-22T08:50:46;19.30;47.90
69054;DHT22;56125;52.242;4.756;2023-04-22T08:55:48;19.40;48.50
69054;DHT22;56125;52.242;4.756;2023-04-22T09:00:50;19.40;48.60
69054;DHT22;56125;52.242;4.756;2023-04-22T09:05:52;19.50;48.60
69054;DHT22;56125;52.242;4.756;2023-04-22T09:10:54;19.50;48.80
69054;DHT22;56125;52.242;4.756;2023-04-22T09:15:55;19.50;48.40
69054;DHT22;56125;52.242;4.756;2023-04-22T09:20:56;19.50;48.20
69054;DHT22;56125;52.242;4.756;2023-04-22T09:25:58;19.50;48.00
69054;DHT22;56125;52.242;4.756;2023-04-22T09:30:59;19.50;47.70
69054;DHT22;56125;52.242;4.756;2023-04-22T09:36:08;19.50;47.50
69054;DHT22;56125;52.242;4.756;2023-04-22T09:41:09;19.40;47.70
69054;DHT22;56125;52.242;4.756;2023-04-22T09:46:12;19.50;47.50
69054;DHT22;56125;52.242;4.756;2023-04-22T09:51:16;19.70;47.60
69054;DHT22;56125;52.242;4.756;2023-04-22T09:56:17;19.50;47.60
69054;DHT22;56125;52.242;4.756;2023-04-22T10:01:18;19.70;47.90
69054;DHT22;56125;52.242;4.756;2023-04-22T10:06:19;19.50;47.60
69054;DHT22;56125;52.242;4.756;2023-04-22T10:11:21;19.50;47.20
69054;DHT22;56125;52.242;4.756;2023-04-22T10:16:23;19.50;47.10
69054;DHT22;56125;52.242;4.756;2023-04-22T10:21:25;19.50;47.10
69054;DHT22;56125;52.242;4.756;2023-04-22T10:26:40;19.40;47.60
69054;DHT22;56125;52.242;4.756;2023-04-22T10:31:48;19.60;47.30
69054;DHT22;56125;52.242;4.756;2023-04-22T10:37:07;19.60;46.90
69054;DHT22;56125;52.242;4.756;2023-04-22T10:42:12;19.40;46.60
69054;DHT22;56125;52.242;4.756;2023-04-22T10:47:34;19.20;46.70
69054;DHT22;56125;52.242;4.756;2023-04-22T10:52:36;19.60;47.30
69054;DHT22;56125;52.242;4.756;2023-04-22T10:57:42;19.50;47.00
69054;DHT22;56125;52.242;4.756;2023-04-22T11:02:45;19.50;47.20
69054;DHT22;56125;52.242;4.756;2023-04-22T11:07:47;19.50;47.00
69054;DHT22;56125;52.242;4.756;2023-04-22T11:12:49;19.50;47.50
69054;DHT22;56125;52.242;4.756;2023-04-22T11:17:51;20.10;47.80
69054;DHT22;56125;52.242;4.756;2023-04-22T11:22:55;19.50;47.10
69054;DHT22;56125;52.242;4.756;2023-04-22T11:27:56;20.10;48.00
69054;DHT22;56125;52.242;4.756;2023-04-22T11:32:58;20.00;47.90
69054;DHT22;56125;52.242;4.756;2023-04-22T11:38:02;19.50;47.90
69054;DHT22;56125;52.242;4.756;2023-04-22T11:43:05;19.60;47.70
69054;DHT22;56125;52.242;4.756;2023-04-22T11:48:09;19.50;47.80
69054;DHT22;56125;52.242;4.756;2023-04-22T11:53:19;19.40;47.50
69054;DHT22;56125;52.242;4.756;2023-04-22T11:58:25;19.50;48.30
69054;DHT22;56125;52.242;4.756;2023-04-22T12:03:28;20.10;48.00
69054;DHT22;56125;52.242;4.756;2023-04-22T12:08:37;19.70;47.50
69054;DHT22;56125;52.242;4.756;2023-04-22T12:13:43;19.50;47.30
69054;DHT22;56125;52.242;4.756;2023-04-22T12:18:53;19.50;47.40
69054;DHT22;56125;52.242;4.756;2023-04-22T12:24:02;19.40;47.30
69054;DHT22;56125;52.242;4.756;2023-04-22T12:29:06;19.40;47.30
69054;DHT22;56125;52.242;4.756;2023-04-22T12:34:07;19.40;47.40
69054;DHT22;56125;52.242;4.756;2023-04-22T12:39:08;19.40;47.40
69054;DHT22;56125;52.242;4.756;2023-04-22T12:44:10;19.40;47.40
69054;DHT22;56125;52.242;4.756;2023-04-22T12:49:11;19.40;47.40
69054;DHT22;56125;52.242;4.756;2023-04-22T12:54:14;19.40;47.40
69054;DHT22;56125;52.242;4.756;2023-04-22T12:59:15;19.50;47.60
69054;DHT22;56125;52.242;4.756;2023-04-22T13:04:17;19.30;47.40
69054;DHT22;56125;52.242;4.756;2023-04-22T13:09:19;19.40;47.60
69054;DHT22;56125;52.242;4.756;2023-04-22T13:14:20;19.40;47.70
69054;DHT22;56125;52.242;4.756;2023-04-22T13:19:21;19.40;47.70
69054;DHT22;56125;52.242;4.756;2023-04-22T13:24:25;19.40;47.90
69054;DHT22;56125;52.242;4.756;2023-04-22T13:29:26;19.60;48.00
69054;DHT22;56125;52.242;4.756;2023-04-22T13:34:27;19.40;48.00
69054;DHT22;56125;52.242;4.756;2023-04-22T13:39:28;19.90;48.20
69054;DHT22;56125;52.242;4.756;2023-04-22T13:44:29;19.40;48.10
69054;DHT22;56125;52.242;4.756;2023-04-22T13:49:30;19.30;48.60
69054;DHT22;56125;52.242;4.756;2023-04-22T13:54:31;19.40;48.20
69054;DHT22;56125;52.242;4.756;2023-04-22T13:59:34;19.30;48.20
69054;DHT22;56125;52.242;4.756;2023-04-22T14:04:36;19.30;48.10
69054;DHT22;56125;52.242;4.756;2023-04-22T14:09:37;19.30;48.30
69054;DHT22;56125;52.242;4.756;2023-04-22T14:14:38;19.30;48.30
69054;DHT22;56125;52.242;4.756;2023-04-22T14:19:39;19.30;48.30
69054;DHT22;56125;52.242;4.756;2023-04-22T14:24:40;19.30;48.30
69054;DHT22;56125;52.242;4.756;2023-04-22T14:29:41;19.30;48.60
69054;DHT22;56125;52.242;4.756;2023-04-22T14:34:43;19.30;48.40
69054;DHT22;56125;52.242;4.756;2023-04-22T14:39:45;19.30;49.20
69054;DHT22;56125;52.242;4.756;2023-04-22T14:44:46;19.30;49.20
69054;DHT22;56125;52.242;4.756;2023-04-22T14:49:47;19.30;50.40
69054;DHT22;56125;52.242;4.756;2023-04-22T14:54:48;19.30;50.70
69054;DHT22;56125;52.242;4.756;2023-04-22T14:59:49;19.30;50.50
69054;DHT22;56125;52.242;4.756;2023-04-22T15:04:50;19.30;49.60
69054;DHT22;56125;52.242;4.756;2023-04-22T15:09:52;19.40;49.70
69054;DHT22;56125;52.242;4.756;2023-04-22T15:14:53;19.30;49.80
69054;DHT22;56125;52.242;4.756;2023-04-22T15:19:54;19.40;50.20
69054;DHT22;56125;52.242;4.756;2023-04-22T15:24:57;19.40;50.50
69054;DHT22;56125;52.242;4.756;2023-04-22T15:29:58;19.30;50.30
69054;DHT22;56125;52.242;4.756;2023-04-22T15:34:59;19.30;49.90
69054;DHT22;56125;52.242;4.756;2023-04-22T15:40:00;19.30;50.40
69054;DHT22;56125;52.242;4.756;2023-04-22T15:45:01;19.40;51.50
69054;DHT22;56125;52.242;4.756;2023-04-22T15:50:03;19.40;51.10
69054;DHT22;56125;52.242;4.756;2023-04-22T15:55:08;19.40;52.40
69054;DHT22;56125;52.242;4.756;2023-04-22T16:00:10;19.30;52.90
69054;DHT22;56125;52.242;4.756;2023-04-22T16:05:12;19.40;52.70
69054;DHT22;56125;52.242;4.756;2023-04-22T16:10:14;19.40;52.60
69054;DHT22;56125;52.242;4.756;2023-04-22T16:15:15;19.30;51.70
69054;DHT22;56125;52.242;4.756;2023-04-22T16:20:17;19.30;52.10
69054;DHT22;56125;52.242;4.756;2023-04-22T16:25:19;19.40;51.00
69054;DHT22;56125;52.242;4.756;2023-04-22T16:30:20;19.40;50.70
69054;DHT22;56125;52.242;4.756;2023-04-22T16:35:21;19.40;50.40
69054;DHT22;56125;52.242;4.756;2023-04-22T16:40:22;19.40;50.10
69054;DHT22;56125;52.242;4.756;2023-04-22T16:45:23;19.30;49.90
69054;DHT22;56125;52.242;4.756;2023-04-22T16:50:24;19.30;49.60
69054;DHT22;56125;52.242;4.756;2023-04-22T16:55:25;19.30;49.50
69054;DHT22;56125;52.242;4.756;2023-04-22T17:00:26;19.40;49.50
69054;DHT22;56125;52.242;4.756;2023-04-22T17:05:27;19.40;49.30
69054;DHT22;56125;52.242;4.756;2023-04-22T17:10:28;19.40;49.30
69054;DHT22;56125;52.242;4.756;2023-04-22T17:15:29;19.40;49.40
69054;DHT22;56125;52.242;4.756;2023-04-22T17:20:30;19.30;49.40
69054;DHT22;56125;52.242;4.756;2023-04-22T17:25:31;19.40;49.30
69054;DHT22;56125;52.242;4.756;2023-04-22T17:30:32;19.40;49.20
69054;DHT22;56125;52.242;4.756;2023-04-22T17:35:34;19.40;48.90
69054;DHT22;56125;52.242;4.756;2023-04-22T17:40:35;19.40;48.90
69054;DHT22;56125;52.242;4.756;2023-04-22T17:45:36;19.40;48.90
69054;DHT22;56125;52.242;4.756;2023-04-22T17:50:37;19.40;48.80
69054;DHT22;56125;52.242;4.756;2023-04-22T17:55:38;19.40;49.00
69054;DHT22;56125;52.242;4.756;2023-04-22T18:00:39;19.40;49.00
69054;DHT22;56125;52.242;4.756;2023-04-22T18:05:40;19.40;49.60
69054;DHT22;56125;52.242;4.756;2023-04-22T18:10:43;19.30;49.40
69054;DHT22;56125;52.242;4.756;2023-04-22T18:15:44;19.40;49.90
69054;DHT22;56125;52.242;4.756;2023-04-22T18:20:45;19.40;49.60
69054;DHT22;56125;52.242;4.756;2023-04-22T18:25:46;19.40;49.60
69054;DHT22;56125;52.242;4.756;2023-04-22T18:30:47;19.40;49.40
69054;DHT22;56125;52.242;4.756;2023-04-22T18:35:48;19.40;49.50
69054;DHT22;56125;52.242;4.756;2023-04-22T18:40:49;19.40;49.30
69054;DHT22;56125;52.242;4.756;2023-04-22T18:45:50;19.40;49.50
69054;DHT22;56125;52.242;4.756;2023-04-22T18:50:52;19.40;49.40
69054;DHT22;56125;52.242;4.756;2023-04-22T18:55:53;19.40;50.00
69054;DHT22;56125;52.242;4.756;2023-04-22T19:00:54;19.40;50.00
69054;DHT22;56125;52.242;4.756;2023-04-22T19:05:55;19.40;50.30
69054;DHT22;56125;52.242;4.756;2023-04-22T19:10:56;19.40;49.50
69054;DHT22;56125;52.242;4.756;2023-04-22T19:15:57;19.40;49.50
69054;DHT22;56125;52.242;4.756;2023-04-22T19:20:58;19.40;49.40
69054;DHT22;56125;52.242;4.756;2023-04-22T19:25:59;19.40;49.30
69054;DHT22;56125;52.242;4.756;2023-04-22T19:31:04;19.40;49.30
69054;DHT22;56125;52.242;4.756;2023-04-22T19:36:05;19.30;49.20
69054;DHT22;56125;52.242;4.756;2023-04-22T19:41:06;19.30;49.80
69054;DHT22;56125;52.242;4.756;2023-04-22T19:46:08;19.30;49.20
69054;DHT22;56125;52.242;4.756;2023-04-22T19:51:10;19.30;49.20
69054;DHT22;56125;52.242;4.756;2023-04-22T19:56:11;19.20;49.40
69054;DHT22;56125;52.242;4.756;2023-04-22T20:01:12;19.30;49.80
69054;DHT22;56125;52.242;4.756;2023-04-22T20:06:13;19.20;49.70
69054;DHT22;56125;52.242;4.756;2023-04-22T20:11:16;19.20;49.80
69054;DHT22;56125;52.242;4.756;2023-04-22T20:16:17;18.70;49.80
69054;DHT22;56125;52.242;4.756;2023-04-22T20:21:19;19.20;49.80
69054;DHT22;56125;52.242;4.756;2023-04-22T20:26:20;19.20;49.60
69054;DHT22;56125;52.242;4.756;2023-04-22T20:31:21;19.20;49.80
69054;DHT22;56125;52.242;4.756;2023-04-22T20:36:23;19.20;50.40
69054;DHT22;56125;52.242;4.756;2023-04-22T20:41:26;18.70;49.40
69054;DHT22;56125;52.242;4.756;2023-04-22T20:46:27;19.20;49.70
69054;DHT22;56125;52.242;4.756;2023-04-22T20:51:28;19.20;49.70
69054;DHT22;56125;52.242;4.756;2023-04-22T20:56:29;19.20;49.50
69054;DHT22;56125;52.242;4.756;2023-04-22T21:01:30;19.20;49.60
69054;DHT22;56125;52.242;4.756;2023-04-22T21:06:31;19.20;49.60
69054;DHT22;56125;52.242;4.756;2023-04-22T21:11:33;18.90;49.50
69054;DHT22;56125;52.242;4.756;2023-04-22T21:16:39;19.20;49.60
69054;DHT22;56125;52.242;4.756;2023-04-22T21:21:40;19.20;49.60
69054;DHT22;56125;52.242;4.756;2023-04-22T21:26:43;19.10;49.50
69054;DHT22;56125;52.242;4.756;2023-04-22T21:31:45;19.10;49.60
69054;DHT22;56125;52.242;4.756;2023-04-22T21:36:46;19.20;49.50
69054;DHT22;56125;52.242;4.756;2023-04-22T21:41:47;19.20;49.60
69054;DHT22;56125;52.242;4.756;2023-04-22T21:46:48;19.10;49.50
69054;DHT22;56125;52.242;4.756;2023-04-22T21:51:49;19.10;49.40
69054;DHT22;56125;52.242;4.756;2023-04-22T21:56:50;19.10;49.50
69054;DHT22;56125;52.242;4.756;2023-04-22T22:01:51;19.10;49.60
69054;DHT22;56125;52.242;4.756;2023-04-22T22:06:52;19.10;49.40
69054;DHT22;56125;52.242;4.756;2023-04-22T22:11:53;19.20;49.50
69054;DHT22;56125;52.242;4.756;2023-04-22T22:16:54;19.10;49.60
69054;DHT22;56125;52.242;4.756;2023-04-22T22:21:55;19.10;49.70
69054;DHT22;56125;52.242;4.756;2023-04-22T22:26:56;19.00;49.50
69054;DHT22;56125;52.242;4.756;2023-04-22T22:31:57;19.00;49.50
69054;DHT22;56125;52.242;4.756;2023-04-22T22:36:59;19.00;49.60
69054;DHT22;56125;52.242;4.756;2023-04-22T22:42:00;19.00;49.60
69054;DHT22;56125;52.242;4.756;2023-04-22T22:47:01;19.00;49.50
69054;DHT22;56125;52.242;4.756;2023-04-22T22:52:03;19.00;49.50
69054;DHT22;56125;52.242;4.756;2023-04-22T22:57:05;19.00;49.50
69054;DHT22;56125;52.242;4.756;2023-04-22T23:02:06;19.00;49.50
69054;DHT22;56125;52.242;4.756;2023-04-22T23:07:07;18.90;49.50
69054;DHT22;56125;52.242;4.756;2023-04-22T23:12:09;19.00;49.40
69054;DHT22;56125;52.242;4.756;2023-04-22T23:17:10;19.00;49.40
69054;DHT22;56125;52.242;4.756;2023-04-22T23:22:11;19.00;49.50
69054;DHT22;56125;52.242;4.756;2023-04-22T23:27:12;19.00;49.50
69054;DHT22;56125;52.242;4.756;2023-04-22T23:32:14;18.90;49.40
69054;DHT22;56125;52.242;4.756;2023-04-22T23:37:18;18.90;49.40
69054;DHT22;56125;52.242;4.756;2023-04-22T23:42:19;19.00;49.40
69054;DHT22;56125;52.242;4.756;2023-04-22T23:47:20;18.80;49.20
69054;DHT22;56125;52.242;4.756;2023-04-22T23:52:21;18.90;49.30
69054;DHT22;56125;52.242;4.756;2023-04-22T23:57:23;18.90;49.50
